.
WxDataArchive / Data Records for 2008-05-20
2008-05-19 May 2008 2008-05-21

Data Records for Tuesday, 20 May 2008

Time	Temp	Chill	HIndex	Humid	Dewpt	 Wind 	HiWind	WindDir	Rain 	Barom 
-----	----	-----	------	-----	-----	------	------	-------	-----	----- 
00:00	51.6	51.6	51.6	49	33.1	0	0	---	0.00	29.579 
00:05	51.6	51.6	51.6	49	33.1	0	0	---	0.00	29.578 
00:10	51.4	51.4	51.4	49	32.9	0	0	---	0.00	29.579 
00:15	51.4	51.4	51.4	49	32.9	0	1	248	0.00	29.581 
00:20	51.4	51.4	51.4	50	33.4	0	0	---	0.00	29.575 
00:25	51.3	51.3	51.3	52	34.3	0	0	---	0.00	29.572 
00:30	51.1	51.1	51.1	52	34.1	0	0	---	0.00	29.573 
00:35	51.0	51.0	51.0	53	34.5	0	0	---	0.00	29.573 
00:40	51.0	51.0	51.0	53	34.5	0	0	---	0.00	29.571 
00:45	50.8	50.8	50.8	53	34.3	0	0	---	0.00	29.562 
00:50	50.7	50.7	50.7	52	33.7	0	0	---	0.00	29.571 
00:55	50.7	50.7	50.7	51	33.2	0	0	---	0.00	29.571 
01:00	50.5	50.5	50.5	50	32.6	0	1	248	0.00	29.573 
01:05	50.5	50.5	50.5	51	33.1	0	1	248	0.00	29.572 
01:10	50.4	50.4	50.4	51	33.0	0	1	248	0.00	29.571 
01:15	50.4	50.4	50.4	53	33.9	0	1	248	0.00	29.565 
01:20	50.2	50.2	50.2	55	34.7	0	1	248	0.00	29.562 
01:25	50.1	50.1	50.1	58	35.9	0	1	248	0.00	29.560 
01:30	50.1	50.1	50.1	58	35.9	0	1	248	0.00	29.558 
01:35	50.1	50.1	50.1	59	36.3	0	1	248	0.00	29.554 
01:40	49.9	49.9	49.9	60	36.6	0	0	---	0.00	29.549 
01:45	49.9	49.9	49.9	60	36.6	0	0	---	0.00	29.543 
01:50	49.8	49.8	49.8	60	36.5	0	1	248	0.00	29.543 
01:55	49.8	49.8	49.8	61	36.9	0	0	---	0.00	29.541 
02:00	49.8	49.8	49.8	62	37.3	0	0	---	0.00	29.539 
02:05	49.8	49.8	49.8	62	37.3	0	0	---	0.00	29.531 
02:10	49.6	49.6	49.6	62	37.1	0	0	---	0.00	29.524 
02:15	49.6	49.6	49.6	62	37.1	0	0	---	0.00	29.525 
02:20	49.6	49.6	49.6	62	37.1	0	0	---	0.00	29.524 
02:25	49.6	49.6	49.6	62	37.1	0	0	---	0.00	29.523 
02:30	49.6	49.6	49.6	63	37.5	0	0	---	0.00	29.522 
02:35	49.5	49.5	49.5	65	38.2	0	0	---	0.00	29.519 
02:40	49.5	49.5	49.5	66	38.6	0	0	---	0.00	29.516 
02:45	49.5	49.5	49.5	66	38.6	0	0	---	0.00	29.510 
02:50	49.4	49.4	49.4	67	38.9	0	0	---	0.00	29.511 
02:55	49.4	49.4	49.4	66	38.5	0	0	---	0.00	29.513 
03:00	49.4	49.4	49.4	67	38.9	0	0	---	0.00	29.511 
03:05	49.4	49.4	49.4	66	38.5	0	0	---	0.00	29.517 
03:10	49.5	49.5	49.5	65	38.2	0	0	---	0.00	29.519 
03:15	49.5	49.5	49.5	66	38.6	0	0	---	0.00	29.514 
03:20	49.5	49.5	49.5	67	39.0	0	0	---	0.00	29.511 
03:25	49.6	49.6	49.6	66	38.7	0	0	---	0.00	29.512 
03:30	49.6	49.6	49.6	66	38.7	0	0	---	0.00	29.509 
03:35	49.5	49.5	49.5	67	39.0	0	0	---	0.00	29.508 
03:40	49.5	49.5	49.5	66	38.6	0	0	---	0.00	29.509 
03:45	49.5	49.5	49.5	65	38.2	0	0	---	0.00	29.510 
03:50	49.5	49.5	49.5	66	38.6	0	0	---	0.00	29.513 
03:55	49.5	49.5	49.5	67	39.0	0	0	---	0.00	29.518 
04:00	49.5	49.5	49.5	66	38.6	0	1	248	0.00	29.519 
04:05	49.4	49.4	49.4	65	38.1	0	1	315	0.00	29.523 
04:10	49.2	49.2	49.2	64	37.5	0	3	68	0.00	29.525 
04:15	49.1	49.1	49.1	62	36.6	0	2	68	0.00	29.524 
04:20	49.1	49.1	49.1	61	36.2	0	2	68	0.00	29.525 
04:25	48.9	48.9	48.9	60	35.6	0	1	68	0.00	29.531 
04:30	48.9	48.9	48.9	58	34.8	0	1	68	0.00	29.534 
04:35	48.8	48.8	48.8	59	35.1	0	1	68	0.00	29.533 
04:40	48.6	48.6	48.6	58	34.5	0	2	45	0.00	29.533 
04:45	48.3	48.3	48.3	59	34.6	0	1	45	0.00	29.535 
04:50	48.0	48.0	48.0	60	34.8	0	1	45	0.00	29.538 
04:55	47.6	47.6	47.6	61	34.8	0	1	45	0.00	29.540 
05:00	47.4	47.4	47.4	61	34.6	0	1	45	0.00	29.543 
05:05	47.3	47.3	47.3	61	34.5	0	0	---	0.00	29.546 
05:10	47.1	47.1	47.1	62	34.8	0	0	---	0.00	29.549 
05:15	47.1	47.1	47.1	62	34.8	0	1	45	0.00	29.553 
05:20	47.1	47.1	47.1	61	34.4	0	1	45	0.00	29.557 
05:25	47.3	47.3	47.3	61	34.5	0	1	45	0.00	29.559 
05:30	47.3	47.3	47.3	62	34.9	0	1	45	0.00	29.560 
05:35	47.3	47.3	47.3	62	34.9	0	0	---	0.00	29.560 
05:40	47.3	47.3	47.3	62	34.9	0	0	---	0.00	29.561 
05:45	47.3	47.3	47.3	62	34.9	0	1	45	0.00	29.565 
05:50	47.3	47.3	47.3	61	34.5	0	1	45	0.00	29.567 
05:55	47.4	47.4	47.4	61	34.6	0	1	45	0.00	29.566 
06:00	47.4	47.4	47.4	61	34.6	0	0	---	0.00	29.569 
06:05	47.4	47.4	47.4	61	34.6	0	1	45	0.00	29.571 
06:10	47.6	47.6	47.6	60	34.4	0	1	45	0.00	29.572 
06:15	47.6	47.6	47.6	60	34.4	0	1	45	0.00	29.571 
06:20	47.7	47.7	47.7	59	34.1	0	1	45	0.00	29.573 
06:25	47.9	47.9	47.9	60	34.7	0	1	45	0.00	29.574 
06:30	48.0	48.0	48.0	58	33.9	0	2	45	0.00	29.575 
06:35	48.2	48.2	48.2	58	34.1	0	1	22	0.00	29.576 
06:40	48.3	48.3	48.3	59	34.6	0	1	22	0.00	29.577 
06:45	48.3	48.3	48.3	59	34.6	0	2	0	0.00	29.577 
06:50	48.5	48.5	48.5	59	34.8	0	2	0	0.00	29.575 
06:55	48.6	48.6	48.6	60	35.3	0	1	0	0.00	29.577 
07:00	48.6	48.6	48.6	60	35.3	0	3	338	0.00	29.578 
07:05	48.8	48.8	48.8	58	34.7	0	2	338	0.00	29.581 
07:10	48.9	48.9	48.9	59	35.2	0	2	315	0.00	29.581 
07:15	48.9	48.9	48.9	58	34.8	0	2	315	0.00	29.581 
07:20	49.1	49.1	49.1	58	35.0	0	3	315	0.00	29.583 
07:25	49.2	49.2	49.2	58	35.1	0	2	292	0.00	29.584 
07:30	49.2	49.2	49.2	59	35.5	0	2	270	0.00	29.584 
07:35	49.4	49.4	49.4	60	36.1	0	2	270	0.00	29.585 
07:40	49.6	49.6	49.6	59	35.9	0	2	270	0.00	29.585 
07:45	49.9	49.9	49.9	60	36.6	0	2	270	0.00	29.587 
07:50	50.4	50.4	50.4	59	36.6	0	1	248	0.00	29.588 
07:55	50.7	50.7	50.7	58	36.5	0	2	248	0.00	29.587 
08:00	50.8	50.8	50.8	56	35.7	0	2	22	0.00	29.588 
08:05	51.1	51.1	51.1	58	36.8	0	2	338	0.00	29.590 
08:10	51.4	51.4	51.4	58	37.1	0	2	338	0.00	29.590 
08:15	51.9	51.9	51.9	54	35.8	0	2	315	0.00	29.590 
08:20	52.3	52.3	52.3	54	36.2	0	2	270	0.00	29.591 
08:25	52.9	52.9	52.9	55	37.2	0	2	292	0.00	29.592 
08:30	53.2	53.2	53.2	53	36.5	1	4	45	0.00	29.593 
08:35	53.5	53.5	53.5	49	34.8	0	2	45	0.00	29.592 
08:40	53.6	53.6	53.6	51	35.9	0	1	22	0.00	29.592 
08:45	53.8	53.8	53.8	50	35.6	1	3	292	0.00	29.593 
08:50	53.5	53.5	53.5	48	34.3	1	3	292	0.00	29.594 
08:55	53.3	53.3	53.3	50	35.1	1	3	292	0.00	29.595 
09:00	53.5	53.5	53.5	50	35.3	0	2	22	0.00	29.593 
09:05	53.9	53.9	53.9	50	35.7	0	2	338	0.00	29.593 
09:10	54.2	54.2	54.2	48	34.9	1	3	338	0.00	29.592 
09:15	54.4	54.4	54.4	49	35.6	0	2	248	0.00	29.591 
09:20	54.5	54.5	54.5	49	35.7	0	4	248	0.00	29.591 
09:25	54.8	54.8	54.8	49	36.0	0	2	315	0.00	29.593 
09:30	55.1	55.1	55.1	50	36.8	0	2	315	0.00	29.592 
09:35	55.4	55.4	55.4	48	36.0	0	2	270	0.00	29.592 
09:40	55.6	55.6	55.6	50	37.3	0	3	248	0.00	29.593 
09:45	56.0	56.0	56.0	44	34.4	0	3	338	0.00	29.592 
09:50	56.5	56.5	56.5	43	34.3	0	2	68	0.00	29.593 
09:55	56.6	56.6	56.6	43	34.4	1	4	68	0.00	29.593 
10:00	57.0	57.0	57.0	45	35.9	0	2	315	0.00	29.593 
10:05	57.5	57.5	57.5	41	34.0	0	2	315	0.00	29.596 
10:10	57.5	57.5	57.5	38	32.1	1	3	22	0.00	29.596 
10:15	57.6	57.6	57.6	40	33.5	0	2	270	0.00	29.597 
10:20	57.6	57.6	57.6	41	34.1	0	2	292	0.00	29.599 
10:25	57.6	57.6	57.6	41	34.1	1	3	315	0.00	29.598 
10:30	58.0	58.0	58.0	40	33.8	0	2	315	0.00	29.598 
10:35	58.0	58.0	58.0	38	32.5	1	3	315	0.00	29.601 
10:40	57.8	57.8	57.8	40	33.6	1	3	248	0.00	29.601 
10:45	57.8	57.8	57.8	40	33.6	1	3	248	0.00	29.603 
10:50	58.1	58.1	58.1	41	34.5	1	3	270	0.00	29.602 
10:55	58.6	58.6	58.6	41	35.0	2	5	248	0.00	29.602 
11:00	58.9	58.9	58.9	43	36.4	1	4	248	0.00	29.601 
11:05	59.0	59.0	59.0	44	37.1	1	4	248	0.00	29.604 
11:10	59.3	59.3	59.3	48	39.6	1	4	248	0.00	29.603 
11:15	59.3	59.3	59.3	43	36.8	1	3	248	0.00	29.604 
11:20	59.3	59.3	59.3	40	35.0	1	3	315	0.00	29.602 
11:25	59.8	59.8	59.8	43	37.3	1	5	248	0.00	29.601 
11:30	59.9	59.9	59.9	45	38.5	1	4	292	0.00	29.601 
11:35	59.9	59.9	59.9	41	36.1	1	3	248	0.00	29.602 
11:40	60.2	60.2	60.2	42	37.0	2	5	248	0.00	29.602 
11:45	60.7	60.7	60.7	40	36.2	1	4	248	0.00	29.602 
11:50	61.0	61.0	61.0	44	38.9	2	6	315	0.00	29.602 
11:55	61.0	61.0	61.0	39	35.9	2	5	270	0.00	29.603 
12:00	60.9	60.9	60.9	39	35.8	2	5	270	0.00	29.602 
12:05	61.2	61.2	61.2	39	36.0	3	7	270	0.00	29.601 
12:10	61.2	61.2	61.2	44	39.1	3	9	248	0.00	29.601 
12:15	60.9	60.9	60.9	37	34.5	3	10	270	0.00	29.601 
12:20	61.0	61.0	61.0	40	36.5	3	5	270	0.00	29.602 
12:25	61.3	61.3	61.3	43	38.6	2	5	270	0.00	29.601 
12:30	61.0	61.0	61.0	43	38.3	2	5	270	0.00	29.601 
12:35	60.9	60.9	60.9	45	39.4	3	6	270	0.00	29.601 
12:40	61.2	61.2	61.2	43	38.5	2	4	248	0.00	29.601 
12:45	61.2	61.2	61.2	40	36.7	3	7	270	0.00	29.599 
12:50	61.2	61.2	61.2	40	36.7	2	7	292	0.00	29.600 
12:55	61.8	61.8	61.8	42	38.5	2	6	270	0.00	29.598 
13:00	61.3	61.3	61.3	43	38.6	3	7	270	0.00	29.600 
13:05	61.3	61.3	61.3	45	39.8	3	5	270	0.00	29.601 
13:10	61.3	61.3	61.3	44	39.2	3	6	270	0.00	29.600 
13:15	60.1	60.1	60.1	39	35.1	3	5	270	0.00	29.602 
13:20	60.2	60.2	60.2	46	39.3	2	4	292	0.00	29.599 
13:25	60.4	60.4	60.4	39	35.3	4	11	270	0.00	29.600 
13:30	60.5	60.5	60.5	42	37.3	3	7	270	0.00	29.601 
13:35	60.5	60.5	60.5	39	35.4	3	11	270	0.00	29.601 
13:40	60.9	60.9	60.9	41	37.0	3	6	270	0.00	29.601 
13:45	60.9	60.9	60.9	41	37.0	3	6	270	0.00	29.601 
13:50	60.5	60.5	60.5	41	36.7	3	6	270	0.00	29.599 
13:55	60.7	60.7	60.7	39	35.6	3	7	270	0.00	29.601 
14:00	60.2	60.2	60.2	40	35.8	3	6	270	0.00	29.600 
14:05	60.1	60.1	60.1	42	36.9	3	6	270	0.00	29.601 
14:10	59.9	59.9	59.9	44	37.9	3	6	270	0.00	29.601 
14:15	60.5	60.5	60.5	46	39.6	2	6	248	0.00	29.601 
14:20	60.9	60.9	60.9	43	38.3	3	6	270	0.00	29.597 
14:25	60.5	60.5	60.5	42	37.3	3	6	270	0.00	29.595 
14:30	60.5	60.5	60.5	42	37.3	3	6	270	0.00	29.593 
14:35	60.7	60.7	60.7	44	38.7	2	7	270	0.00	29.591 
14:40	61.0	61.0	61.0	43	38.3	3	6	270	0.00	29.593 
14:45	61.0	61.0	61.0	45	39.5	4	9	270	0.00	29.591 
14:50	60.5	60.5	60.5	42	37.3	2	6	270	0.00	29.589 
14:55	60.1	60.1	60.1	43	37.5	3	6	270	0.00	29.591 
15:00	60.4	60.4	60.4	43	37.8	3	5	270	0.00	29.589 
15:05	60.7	60.7	60.7	46	39.8	3	10	248	0.00	29.588 
15:10	60.5	60.5	60.5	44	38.5	3	8	270	0.00	29.587 
15:15	60.4	60.4	60.4	45	39.0	3	7	270	0.00	29.587 
15:20	60.1	60.1	60.1	44	38.1	3	6	248	0.00	29.587 
15:25	60.1	60.1	60.1	47	39.8	2	4	270	0.00	29.587 
15:30	59.5	59.5	59.5	46	38.7	2	5	270	0.00	29.588 
15:35	59.2	59.2	59.2	46	38.4	2	5	270	0.00	29.589 
15:40	58.7	58.7	58.7	46	38.0	2	5	248	0.00	29.588 
15:45	58.6	58.6	58.6	47	38.4	1	3	270	0.00	29.587 
15:50	58.3	58.3	58.3	48	38.7	2	3	270	0.00	29.588 
15:55	58.3	58.3	58.3	47	38.2	2	5	315	0.00	29.586 
16:00	58.9	58.9	58.9	48	39.2	1	3	270	0.00	29.584 
16:05	59.3	59.3	59.3	47	39.1	1	3	315	0.00	29.585 
16:10	59.2	59.2	59.2	48	39.5	1	3	292	0.00	29.587 
16:15	59.0	59.0	59.0	48	39.3	2	4	270	0.00	29.588 
16:20	59.0	59.0	59.0	49	39.9	1	4	248	0.00	29.586 
16:25	59.0	59.0	59.0	50	40.4	1	3	248	0.00	29.588 
16:30	58.7	58.7	58.7	49	39.6	2	4	315	0.00	29.586 
16:35	58.4	58.4	58.4	50	39.8	1	3	248	0.00	29.586 
16:40	58.0	58.0	58.0	50	39.5	2	4	248	0.00	29.587 
16:45	57.8	57.8	57.8	51	39.8	2	5	248	0.00	29.585 
16:50	57.6	57.6	57.6	53	40.6	2	4	270	0.00	29.583 
16:55	57.6	57.6	57.6	52	40.1	2	6	248	0.00	29.584 
17:00	57.5	57.5	57.5	52	40.0	2	5	270	0.00	29.582 
17:05	57.5	57.5	57.5	52	40.0	2	5	248	0.00	29.582 
17:10	57.6	57.6	57.6	52	40.1	2	4	270	0.00	29.582 
17:15	57.6	57.6	57.6	53	40.6	2	5	270	0.00	29.580 
17:20	57.6	57.6	57.6	52	40.1	2	4	270	0.00	29.579 
17:25	58.0	58.0	58.0	53	41.0	2	5	292	0.00	29.579 
17:30	57.8	57.8	57.8	54	41.3	2	5	248	0.00	29.580 
17:35	57.6	57.6	57.6	53	40.6	3	9	248	0.00	29.579 
17:40	57.5	57.5	57.5	54	41.0	2	4	248	0.00	29.579 
17:45	57.3	57.3	57.3	55	41.3	3	10	248	0.00	29.581 
17:50	57.5	57.5	57.5	55	41.5	2	4	248	0.00	29.579 
17:55	57.5	57.5	57.5	54	41.0	2	5	270	0.00	29.577 
18:00	57.5	57.5	57.5	54	41.0	2	5	248	0.00	29.577 
18:05	57.3	57.3	57.3	54	40.8	2	5	270	0.00	29.575 
18:10	57.3	57.3	57.3	54	40.8	2	5	248	0.00	29.574 
18:15	57.3	57.3	57.3	54	40.8	1	4	315	0.00	29.574 
18:20	57.5	57.5	57.5	53	40.5	2	3	248	0.00	29.575 
18:25	57.6	57.6	57.6	53	40.6	2	6	270	0.00	29.574 
18:30	57.8	57.8	57.8	53	40.8	2	5	270	0.00	29.573 
18:35	58.0	58.0	58.0	52	40.5	1	5	270	0.00	29.572 
18:40	58.1	58.1	58.1	51	40.1	2	5	248	0.00	29.570 
18:45	58.1	58.1	58.1	50	39.6	2	4	248	0.00	29.571 
18:50	58.1	58.1	58.1	51	40.1	1	4	248	0.00	29.573 
18:55	58.0	58.0	58.0	51	40.0	1	3	248	0.00	29.573 
19:00	57.8	57.8	57.8	49	38.8	2	4	270	0.00	29.572 
19:05	57.6	57.6	57.6	49	38.6	2	4	248	0.00	29.570 
19:10	57.5	57.5	57.5	50	39.0	1	3	248	0.00	29.570 
19:15	57.3	57.3	57.3	50	38.8	1	3	225	0.00	29.569 
19:20	57.0	57.0	57.0	50	38.5	1	3	248	0.00	29.570 
19:25	57.0	57.0	57.0	49	38.0	1	2	248	0.00	29.569 
19:30	57.0	57.0	57.0	50	38.5	1	3	248	0.00	29.571 
19:35	56.7	56.7	56.7	50	38.3	0	1	248	0.00	29.571 
19:40	56.5	56.5	56.5	51	38.6	0	2	248	0.00	29.571 
19:45	56.3	56.3	56.3	51	38.4	1	3	248	0.00	29.574 
19:50	56.2	56.2	56.2	51	38.3	0	1	248	0.00	29.574 
19:55	55.9	55.9	55.9	51	38.0	0	1	248	0.00	29.574 
20:00	55.6	55.6	55.6	51	37.8	0	1	248	0.00	29.574 
20:05	55.3	55.3	55.3	52	38.0	0	1	248	0.00	29.572 
20:10	55.1	55.1	55.1	52	37.8	0	1	248	0.00	29.572 
20:15	54.8	54.8	54.8	52	37.5	0	1	248	0.00	29.572 
20:20	54.7	54.7	54.7	53	37.9	0	1	248	0.00	29.571 
20:25	54.4	54.4	54.4	54	38.1	0	1	248	0.00	29.570 
20:30	54.1	54.1	54.1	55	38.3	0	0	---	0.00	29.569 
20:35	53.8	53.8	53.8	55	38.0	0	0	---	0.00	29.570 
20:40	53.5	53.5	53.5	55	37.7	0	1	248	0.00	29.570 
20:45	53.6	53.6	53.6	56	38.3	0	1	248	0.00	29.572 
20:50	53.8	53.8	53.8	55	38.0	0	1	248	0.00	29.572 
20:55	53.9	53.9	53.9	55	38.1	0	1	248	0.00	29.573 
21:00	54.2	54.2	54.2	54	37.9	0	1	248	0.00	29.573 
21:05	54.4	54.4	54.4	54	38.1	0	1	248	0.00	29.571 
21:10	54.5	54.5	54.5	54	38.2	0	1	248	0.00	29.572 
21:15	54.5	54.5	54.5	55	38.7	0	1	248	0.00	29.571 
21:20	54.5	54.5	54.5	54	38.2	0	1	248	0.00	29.571 
21:25	54.5	54.5	54.5	54	38.2	0	1	248	0.00	29.570 
21:30	54.4	54.4	54.4	54	38.1	0	0	---	0.00	29.570 
21:35	54.2	54.2	54.2	55	38.4	0	0	---	0.00	29.570 
21:40	53.8	53.8	53.8	55	38.0	0	0	---	0.00	29.571 
21:45	53.5	53.5	53.5	56	38.2	0	0	---	0.00	29.571 
21:50	53.2	53.2	53.2	57	38.4	0	0	---	0.00	29.571 
21:55	52.9	52.9	52.9	58	38.5	0	0	---	0.00	29.571 
22:00	52.8	52.8	52.8	58	38.4	0	0	---	0.00	29.570 
22:05	52.6	52.6	52.6	58	38.2	0	1	248	0.00	29.565 
22:10	52.6	52.6	52.6	58	38.2	0	0	---	0.00	29.562 
22:15	52.5	52.5	52.5	58	38.2	0	0	---	0.00	29.562 
22:20	52.3	52.3	52.3	58	38.0	0	1	248	0.00	29.560 
22:25	52.2	52.2	52.2	59	38.3	0	0	---	0.00	29.560 
22:30	52.0	52.0	52.0	60	38.5	0	1	248	0.00	29.559 
22:35	51.9	51.9	51.9	60	38.5	0	0	---	0.00	29.559 
22:40	51.7	51.7	51.7	62	39.1	0	0	---	0.00	29.558 
22:45	51.7	51.7	51.7	62	39.1	0	0	---	0.00	29.557 
22:50	51.6	51.6	51.6	62	39.0	0	0	---	0.00	29.556 
22:55	51.6	51.6	51.6	62	39.0	0	0	---	0.00	29.555 
23:00	51.4	51.4	51.4	62	38.8	0	0	---	0.00	29.554 
23:05	51.1	51.1	51.1	63	38.9	0	0	---	0.00	29.550 
23:10	51.0	51.0	51.0	64	39.3	0	1	248	0.00	29.551 
23:15	50.7	50.7	50.7	65	39.4	0	1	248	0.00	29.551 
23:20	50.7	50.7	50.7	65	39.4	0	1	248	0.00	29.551 
23:25	50.8	50.8	50.8	65	39.5	0	1	248	0.00	29.552 
23:30	51.1	51.1	51.1	65	39.7	0	1	248	0.00	29.550 
23:35	51.4	51.4	51.4	65	40.0	0	1	248	0.00	29.548 
23:40	51.6	51.6	51.6	65	40.2	0	1	248	0.00	29.545 
23:45	51.6	51.6	51.6	65	40.2	0	3	248	0.00	29.543 
23:50	51.6	51.6	51.6	65	40.2	0	2	248	0.00	29.543 
23:55	51.4	51.4	51.4	65	40.0	0	1	248	0.00	29.542 

CoCoRaHS
IN-AL-39
A2 Web Hosting
Creative Commons License
GoDaddy
Look for:

loaded 2017-12-13 15:50:34 • last modified 2010-11-18 10:43:29
Privacy PolicyDisclaimer
• wx.awcolley.com is powered by PmWiki v.2002016 •
• all content (unless otherwise noted) © 2017 A W Colley